createdAt,value
2023-03-03T00:00:59.189Z,44.57
2023-03-03T00:03:27.568Z,44.43
2023-03-03T00:05:54.621Z,43.93
2023-03-03T00:08:22.733Z,43.47
2023-03-03T00:10:49.940Z,43.33
2023-03-03T00:13:22.831Z,44.23
2023-03-03T00:15:51.030Z,43.00
2023-03-03T00:18:22.977Z,42.80
2023-03-03T00:20:54.137Z,43.03
2023-03-03T00:23:37.552Z,43.30
2023-03-03T00:26:16.798Z,43.67
2023-03-03T00:28:52.321Z,42.30
2023-03-03T00:31:36.089Z,42.67
2023-03-03T00:34:17.426Z,44.23
2023-03-03T00:36:44.908Z,43.50
2023-03-03T00:39:17.913Z,45.60
2023-03-03T00:41:44.867Z,43.93
2023-03-03T00:44:30.107Z,42.00
2023-03-03T00:46:58.114Z,44.70
2023-03-03T00:49:27.267Z,44.10
2023-03-03T00:51:54.363Z,43.27
2023-03-03T00:54:21.203Z,43.90
2023-03-03T00:56:48.118Z,43.67
2023-03-03T00:59:14.944Z,43.77
2023-03-03T01:01:41.817Z,42.37
2023-03-03T01:04:08.692Z,43.60
2023-03-03T01:06:35.718Z,44.27
2023-03-03T01:09:02.520Z,42.93
2023-03-03T01:11:29.411Z,42.60
2023-03-03T01:13:56.856Z,42.07
2023-03-03T01:16:23.699Z,41.97
2023-03-03T01:18:50.589Z,40.27
2023-03-03T01:21:17.472Z,41.90
2023-03-03T01:23:44.319Z,40.33
2023-03-03T01:26:11.187Z,39.80
2023-03-03T01:28:38.045Z,38.50
2023-03-03T01:31:06.008Z,39.83
2023-03-03T01:33:34.773Z,39.17
2023-03-03T01:36:02.277Z,40.60
2023-03-03T01:38:29.542Z,38.10
2023-03-03T01:40:58.551Z,39.73
2023-03-03T01:43:33.192Z,39.13
2023-03-03T01:45:59.932Z,38.13
2023-03-03T01:48:30.150Z,38.67
2023-03-03T01:51:06.337Z,38.10
2023-03-03T01:53:44.145Z,39.20
2023-03-03T01:56:11.253Z,38.63
2023-03-03T01:58:44.488Z,37.93
2023-03-03T02:01:15.423Z,36.53
2023-03-03T02:03:44.130Z,36.73
2023-03-03T02:06:15.700Z,38.50
2023-03-03T02:08:51.571Z,36.90
2023-03-03T02:11:20.436Z,38.60
2023-03-03T02:13:47.526Z,37.40
2023-03-03T02:16:14.902Z,37.37
2023-03-03T02:18:41.764Z,37.13
2023-03-03T02:21:17.014Z,39.33
2023-03-03T02:24:12.752Z,37.43
2023-03-03T02:26:41.443Z,37.30
2023-03-03T02:29:10.484Z,38.13
2023-03-03T02:31:38.625Z,36.67
2023-03-03T02:34:06.003Z,38.93
2023-03-03T02:36:38.030Z,38.67
2023-03-03T02:39:18.175Z,38.37
2023-03-03T02:42:13.184Z,38.67
2023-03-03T02:44:58.145Z,37.30
2023-03-03T02:47:24.939Z,36.23
2023-03-03T02:49:51.819Z,36.57
2023-03-03T02:52:19.212Z,37.17
2023-03-03T02:54:46.076Z,37.43
2023-03-03T02:57:12.987Z,36.13
2023-03-03T02:59:39.786Z,36.63
2023-03-03T03:02:07.742Z,35.87
2023-03-03T03:04:34.870Z,38.70
2023-03-03T03:07:02.135Z,36.97
2023-03-03T03:09:29.078Z,37.47
2023-03-03T03:11:56.030Z,36.73
2023-03-03T03:14:23.951Z,35.43
2023-03-03T03:16:50.834Z,36.37
2023-03-03T03:19:17.638Z,35.87
2023-03-03T03:21:44.483Z,36.27
2023-03-03T03:24:11.330Z,36.43
2023-03-03T03:26:38.165Z,36.17
2023-03-03T03:29:05.010Z,36.37
2023-03-03T03:31:31.874Z,36.00
2023-03-03T03:34:00.606Z,36.07
2023-03-03T03:36:28.340Z,37.10
2023-03-03T03:38:55.250Z,36.37
2023-03-03T03:41:22.017Z,36.07
2023-03-03T03:43:48.838Z,36.33
2023-03-03T03:46:15.764Z,37.73
2023-03-03T03:48:42.632Z,36.07
2023-03-03T03:51:12.041Z,34.93
2023-03-03T03:53:38.867Z,36.17
2023-03-03T03:56:06.114Z,34.30
2023-03-03T03:58:32.960Z,34.30
2023-03-03T04:01:08.272Z,34.13
2023-03-03T04:03:35.631Z,34.67
2023-03-03T04:06:02.603Z,34.50
2023-03-03T04:08:29.402Z,33.30
2023-03-03T04:10:56.463Z,34.10
2023-03-03T04:13:23.458Z,35.73
2023-03-03T04:15:50.419Z,34.73
2023-03-03T04:18:17.390Z,34.17
2023-03-03T04:20:44.185Z,34.63
2023-03-03T04:23:11.013Z,34.70
2023-03-03T04:25:37.788Z,34.67
2023-03-03T04:28:05.731Z,34.43
2023-03-03T04:30:33.232Z,33.20
2023-03-03T04:33:00.146Z,33.57
2023-03-03T04:35:27.056Z,33.83
2023-03-03T04:37:54.173Z,32.70
2023-03-03T04:40:21.138Z,31.70
2023-03-03T04:42:48.080Z,33.10
2023-03-03T04:45:14.982Z,31.37
2023-03-03T04:47:42.498Z,32.77
2023-03-03T04:50:11.047Z,32.90
2023-03-03T04:52:40.430Z,33.63
2023-03-03T04:55:10.329Z,32.30
2023-03-03T04:57:37.543Z,33.23
2023-03-03T05:00:06.671Z,33.27
2023-03-03T05:02:33.456Z,33.20
2023-03-03T05:05:00.329Z,33.27
2023-03-03T05:07:27.183Z,33.63
2023-03-03T05:09:53.990Z,32.97
2023-03-03T05:12:21.259Z,33.73
2023-03-03T05:14:48.397Z,34.73
2023-03-03T05:17:15.254Z,34.00
2023-03-03T05:19:42.092Z,33.73
2023-03-03T05:22:08.887Z,34.67
2023-03-03T05:24:35.972Z,34.03
2023-03-03T05:27:03.553Z,32.77
2023-03-03T05:29:31.596Z,35.13
2023-03-03T05:31:58.853Z,35.50
2023-03-03T05:34:25.678Z,35.30
2023-03-03T05:36:52.517Z,37.17
2023-03-03T05:39:19.312Z,36.73
2023-03-03T05:41:46.635Z,37.00
2023-03-03T05:44:13.474Z,36.13
2023-03-03T05:46:40.436Z,35.80
2023-03-03T05:49:07.237Z,37.70
2023-03-03T05:51:34.093Z,37.30
2023-03-03T05:54:00.897Z,37.30
2023-03-03T05:56:27.755Z,37.47
2023-03-03T05:58:54.614Z,38.10
2023-03-03T06:01:22.192Z,38.97
2023-03-03T06:03:49.095Z,37.50
2023-03-03T06:06:17.116Z,39.53
2023-03-03T06:08:43.944Z,37.77
2023-03-03T06:11:11.117Z,38.93
2023-03-03T06:13:37.947Z,38.97
2023-03-03T06:16:05.135Z,38.93
2023-03-03T06:18:32.053Z,38.33
2023-03-03T06:20:58.856Z,38.00
2023-03-03T06:23:25.878Z,39.37
2023-03-03T06:25:53.329Z,39.23
2023-03-03T06:28:20.267Z,38.07
2023-03-03T06:30:47.094Z,38.90
2023-03-03T06:33:13.917Z,40.43
2023-03-03T06:35:40.849Z,39.10
2023-03-03T06:38:08.237Z,39.33
2023-03-03T06:40:35.094Z,40.40
2023-03-03T06:43:03.310Z,37.50
2023-03-03T06:45:30.160Z,38.07
2023-03-03T06:47:57.040Z,38.40
2023-03-03T06:50:23.836Z,37.87
2023-03-03T06:53:00.114Z,39.27
2023-03-03T06:55:26.966Z,35.53
2023-03-03T06:57:55.929Z,35.30
2023-03-03T07:00:30.689Z,33.23
2023-03-03T07:03:07.945Z,33.03
2023-03-03T07:05:34.813Z,35.37
2023-03-03T07:08:01.670Z,33.90
2023-03-03T07:10:30.725Z,32.80
2023-03-03T07:13:14.766Z,31.83
2023-03-03T07:15:41.599Z,31.53
2023-03-03T07:18:28.127Z,30.77
2023-03-03T07:20:54.909Z,30.70
2023-03-03T07:23:25.500Z,29.70
2023-03-03T07:25:53.404Z,28.10
2023-03-03T07:28:29.151Z,28.00
2023-03-03T07:30:58.104Z,27.27
2023-03-03T07:33:31.840Z,28.93
2023-03-03T07:36:00.152Z,29.37
2023-03-03T07:38:38.562Z,27.27
2023-03-03T07:41:14.546Z,26.83
2023-03-03T07:43:50.740Z,25.93
2023-03-03T07:46:25.231Z,26.63
2023-03-03T07:48:53.252Z,27.00
2023-03-03T07:51:29.150Z,27.57
2023-03-03T07:54:12.662Z,26.10
2023-03-03T07:56:39.721Z,26.97
2023-03-03T07:59:24.636Z,27.97
2023-03-03T08:01:55.331Z,27.57
2023-03-03T08:04:36.042Z,26.50
2023-03-03T08:07:03.834Z,26.70
2023-03-03T08:09:37.411Z,28.07
2023-03-03T08:12:07.340Z,30.33
2023-03-03T08:14:36.299Z,28.20
2023-03-03T08:17:14.641Z,29.27
2023-03-03T08:19:41.430Z,28.30
2023-03-03T08:22:31.350Z,27.93
2023-03-03T08:24:58.148Z,28.93
2023-03-03T08:27:25.093Z,28.70
2023-03-03T08:29:51.936Z,28.73
2023-03-03T08:32:19.086Z,28.10
2023-03-03T08:34:45.960Z,26.67
2023-03-03T08:37:12.757Z,26.43
2023-03-03T08:39:39.590Z,26.80
2023-03-03T08:42:06.388Z,29.47
2023-03-03T08:44:33.234Z,27.20
2023-03-03T08:47:00.076Z,26.53
2023-03-03T08:49:26.906Z,25.73
2023-03-03T08:51:54.662Z,25.87
2023-03-03T08:54:21.470Z,26.83
2023-03-03T08:56:48.324Z,26.60
2023-03-03T08:59:15.428Z,27.30
2023-03-03T09:01:44.715Z,26.27
2023-03-03T09:04:11.803Z,25.73
2023-03-03T09:06:39.265Z,25.83
2023-03-03T09:09:06.297Z,25.27
2023-03-03T09:11:33.541Z,24.23
2023-03-03T09:14:16.377Z,22.17
2023-03-03T09:16:52.758Z,22.47
2023-03-03T09:19:27.407Z,22.83
2023-03-03T09:21:56.633Z,21.47
2023-03-03T09:24:36.303Z,20.90
2023-03-03T09:27:12.284Z,23.23
2023-03-03T09:29:39.136Z,22.17
2023-03-03T09:32:43.294Z,23.67
2023-03-03T09:35:36.246Z,22.43
2023-03-03T09:38:21.677Z,21.33
2023-03-03T09:41:29.767Z,20.90
2023-03-03T09:44:17.272Z,20.00
2023-03-03T09:46:49.939Z,20.90
2023-03-03T09:49:26.567Z,20.80
2023-03-03T09:52:03.537Z,21.60
2023-03-03T09:54:39.738Z,22.77
2023-03-03T09:57:22.588Z,22.10
2023-03-03T10:00:20.122Z,22.40
2023-03-03T10:03:17.160Z,23.10
2023-03-03T10:05:53.573Z,23.83
2023-03-03T10:08:42.517Z,24.10
2023-03-03T10:11:12.115Z,23.77
2023-03-03T10:14:06.988Z,24.37
2023-03-03T10:16:52.105Z,22.47
2023-03-03T10:19:38.496Z,24.17
2023-03-03T10:22:17.362Z,24.27
2023-03-03T10:25:09.039Z,26.60
2023-03-03T10:28:09.727Z,22.00
2023-03-03T10:31:02.083Z,23.20
2023-03-03T10:33:52.716Z,23.80
2023-03-03T10:36:25.534Z,24.43
2023-03-03T10:39:03.299Z,22.90
2023-03-03T10:41:48.586Z,23.03
2023-03-03T10:44:26.281Z,23.83
2023-03-03T10:47:17.642Z,25.07
2023-03-03T10:50:11.664Z,21.93
2023-03-03T10:53:05.809Z,21.10
2023-03-03T10:55:39.818Z,23.27
2023-03-03T10:58:34.648Z,25.57
2023-03-03T11:01:07.232Z,24.87
2023-03-03T11:03:34.103Z,24.17
2023-03-03T11:06:16.030Z,23.50
2023-03-03T11:09:20.568Z,22.13
2023-03-03T11:11:57.605Z,22.27
2023-03-03T11:14:47.880Z,21.60
2023-03-03T11:17:25.997Z,21.77
2023-03-03T11:20:20.538Z,22.23
2023-03-03T11:23:15.851Z,22.73
2023-03-03T11:26:14.842Z,22.03
2023-03-03T11:28:55.013Z,21.73
2023-03-03T11:31:49.070Z,22.23
2023-03-03T11:34:31.560Z,21.10
2023-03-03T11:37:01.724Z,22.63
2023-03-03T11:39:28.649Z,23.97
2023-03-03T11:41:58.655Z,23.80
2023-03-03T11:44:46.188Z,23.07
2023-03-03T11:47:21.835Z,19.70
2023-03-03T11:50:29.072Z,18.67
2023-03-03T11:53:20.285Z,17.30
2023-03-03T11:55:55.416Z,15.80
2023-03-03T11:58:29.494Z,16.27
2023-03-03T12:01:20.479Z,16.63
2023-03-03T12:03:58.629Z,16.37
2023-03-03T12:07:12.926Z,16.80
2023-03-03T12:09:50.675Z,17.77
2023-03-03T12:12:27.091Z,16.77
2023-03-03T12:15:25.239Z,17.10
2023-03-03T12:18:11.882Z,16.80
2023-03-03T12:21:18.273Z,18.53
2023-03-03T12:24:19.179Z,16.50
2023-03-03T12:27:25.996Z,17.33
2023-03-03T12:30:06.320Z,18.63
2023-03-03T12:32:49.538Z,19.70
2023-03-03T12:35:35.414Z,19.77
2023-03-03T12:38:13.851Z,18.47
2023-03-03T12:40:54.664Z,18.07
2023-03-03T12:43:39.602Z,18.77
2023-03-03T12:46:37.742Z,17.70
2023-03-03T12:49:05.360Z,16.83
2023-03-03T12:51:46.986Z,15.33
2023-03-03T12:54:16.614Z,15.23
2023-03-03T12:56:57.435Z,15.57
2023-03-03T12:59:36.360Z,14.60
2023-03-03T13:02:15.190Z,14.93
2023-03-03T13:04:55.243Z,15.17
2023-03-03T13:07:42.273Z,15.23
2023-03-03T13:10:32.087Z,15.60
2023-03-03T13:13:07.066Z,15.63
2023-03-03T13:16:06.508Z,15.37
2023-03-03T13:18:51.541Z,15.80
2023-03-03T13:21:26.894Z,15.83
2023-03-03T13:24:21.858Z,16.07
2023-03-03T13:27:14.899Z,15.33
2023-03-03T13:29:56.640Z,16.07
2023-03-03T13:32:47.394Z,16.47
2023-03-03T13:35:32.348Z,16.93
2023-03-03T13:38:02.631Z,16.47
2023-03-03T13:40:45.003Z,15.30
2023-03-03T13:43:32.641Z,16.03
2023-03-03T13:46:08.494Z,16.03
2023-03-03T13:48:58.312Z,16.70
2023-03-03T13:51:37.085Z,16.23
2023-03-03T13:54:18.743Z,16.27
2023-03-03T13:57:15.821Z,17.63
2023-03-03T13:59:59.530Z,17.50
2023-03-03T14:02:48.349Z,17.10
2023-03-03T14:05:35.381Z,16.77
2023-03-03T14:08:26.225Z,17.13
2023-03-03T14:11:02.066Z,15.97
2023-03-03T14:13:43.037Z,16.37
2023-03-03T14:16:21.297Z,15.83
2023-03-03T14:19:02.987Z,16.10
2023-03-03T14:21:43.742Z,16.73
2023-03-03T14:24:23.636Z,17.23
2023-03-03T14:26:52.985Z,16.43
2023-03-03T14:29:28.937Z,17.97
2023-03-03T14:32:01.551Z,16.87
2023-03-03T14:34:41.275Z,17.23
2023-03-03T14:37:44.071Z,17.30
2023-03-03T14:40:36.150Z,19.33
2023-03-03T14:43:18.790Z,18.17
2023-03-03T14:45:46.078Z,17.10
2023-03-03T14:48:24.808Z,17.17
2023-03-03T14:51:30.207Z,16.67
2023-03-03T14:53:58.446Z,15.53
2023-03-03T14:56:26.669Z,15.87
2023-03-03T14:59:14.620Z,15.97
2023-03-03T15:01:42.559Z,15.57
2023-03-03T15:04:15.450Z,14.60
2023-03-03T15:06:48.168Z,14.60
2023-03-03T15:09:36.695Z,15.87
2023-03-03T15:12:24.556Z,14.60
2023-03-03T15:15:06.326Z,15.30
2023-03-03T15:17:39.433Z,15.60
2023-03-03T15:20:24.949Z,14.73
2023-03-03T15:23:00.945Z,15.20
2023-03-03T15:25:49.756Z,14.87
2023-03-03T15:28:54.367Z,13.93
2023-03-03T15:31:27.485Z,14.73
2023-03-03T15:34:26.253Z,15.37
2023-03-03T15:37:01.329Z,15.40
2023-03-03T15:39:55.629Z,15.37
2023-03-03T15:43:05.934Z,15.93
2023-03-03T15:45:42.504Z,15.67
2023-03-03T15:48:26.859Z,17.47
2023-03-03T15:51:12.492Z,15.90
2023-03-03T15:53:56.762Z,17.50
2023-03-03T15:56:58.738Z,16.87
2023-03-03T15:59:42.374Z,17.10
2023-03-03T16:02:46.738Z,17.77
2023-03-03T16:05:16.759Z,17.30
2023-03-03T16:08:13.866Z,18.90
2023-03-03T16:10:54.130Z,17.87
2023-03-03T16:13:49.389Z,17.97
2023-03-03T16:16:31.104Z,17.47
2023-03-03T16:19:07.776Z,17.97
2023-03-03T16:21:47.999Z,16.70
2023-03-03T16:24:41.883Z,19.37
2023-03-03T16:27:32.359Z,18.57
2023-03-03T16:30:15.575Z,18.40
2023-03-03T16:32:53.643Z,16.47
2023-03-03T16:35:32.098Z,17.23
2023-03-03T16:37:59.160Z,16.97
2023-03-03T16:40:36.785Z,17.30
2023-03-03T16:43:25.656Z,16.77
2023-03-03T16:45:59.258Z,16.80
2023-03-03T16:48:31.437Z,17.23
2023-03-03T16:51:48.701Z,17.43
2023-03-03T16:54:19.456Z,17.73
2023-03-03T16:57:04.538Z,17.87
2023-03-03T16:59:53.078Z,16.77
2023-03-03T17:02:48.827Z,16.63
2023-03-03T17:05:39.433Z,15.47
2023-03-03T17:08:22.157Z,16.30
2023-03-03T17:11:07.986Z,15.83
2023-03-03T17:14:02.887Z,15.67
2023-03-03T17:16:52.330Z,15.53
2023-03-03T17:19:25.067Z,15.77
2023-03-03T17:22:09.524Z,15.10
2023-03-03T17:24:42.500Z,14.93
2023-03-03T17:27:21.830Z,14.50
2023-03-03T17:30:07.419Z,16.90
2023-03-03T17:32:55.686Z,17.60
2023-03-03T17:35:46.121Z,15.77
2023-03-03T17:38:50.544Z,16.47
2023-03-03T17:41:32.969Z,15.83
2023-03-03T17:44:08.992Z,15.07
2023-03-03T17:46:45.017Z,16.70
2023-03-03T17:49:30.434Z,16.10
2023-03-03T17:52:23.883Z,16.87
2023-03-03T17:55:13.485Z,17.37
2023-03-03T17:57:43.342Z,16.60
2023-03-03T18:00:30.735Z,16.67
2023-03-03T18:02:57.587Z,16.03
2023-03-03T18:05:56.844Z,17.77
2023-03-03T18:08:36.608Z,15.97
2023-03-03T18:11:31.606Z,16.87
2023-03-03T18:14:29.972Z,17.40
2023-03-03T18:17:08.498Z,15.77
2023-03-03T18:19:56.643Z,18.20
2023-03-03T18:22:33.373Z,17.73
2023-03-03T18:25:12.641Z,17.17
2023-03-03T18:27:42.025Z,17.23
2023-03-03T18:30:17.958Z,18.17
2023-03-03T18:33:35.741Z,18.63
2023-03-03T18:36:15.445Z,16.50
2023-03-03T18:38:46.819Z,17.10
2023-03-03T18:41:22.672Z,14.77
2023-03-03T18:43:58.515Z,16.17
2023-03-03T18:46:25.412Z,16.57
2023-03-03T18:48:57.623Z,17.80
2023-03-03T18:51:39.470Z,16.17
2023-03-03T18:54:30.959Z,16.87
2023-03-03T18:56:58.305Z,16.33
2023-03-03T18:59:39.201Z,14.87
2023-03-03T19:02:24.622Z,16.67
2023-03-03T19:04:56.649Z,17.30
2023-03-03T19:07:27.646Z,17.93
2023-03-03T19:10:04.626Z,18.30
2023-03-03T19:12:54.139Z,17.73
2023-03-03T19:15:38.518Z,17.30
2023-03-03T19:18:18.947Z,18.30
2023-03-03T19:20:53.350Z,18.20
2023-03-03T19:23:46.041Z,18.07
2023-03-03T19:26:25.147Z,17.93
2023-03-03T19:29:03.775Z,18.23
2023-03-03T19:31:56.428Z,17.73
2023-03-03T19:34:41.944Z,17.97
2023-03-03T19:37:24.984Z,16.70
2023-03-03T19:40:17.515Z,17.20
2023-03-03T19:43:09.840Z,17.47
2023-03-03T19:45:53.798Z,17.47
2023-03-03T19:48:36.108Z,17.50
2023-03-03T19:51:17.925Z,16.60
2023-03-03T19:54:14.829Z,17.93
2023-03-03T19:56:50.168Z,16.67
2023-03-03T19:59:16.991Z,17.30
2023-03-03T20:02:14.337Z,17.33
2023-03-03T20:05:04.270Z,17.47
2023-03-03T20:07:59.428Z,18.97
2023-03-03T20:10:54.891Z,18.23
2023-03-03T20:13:29.297Z,17.87
2023-03-03T20:16:22.584Z,19.20
2023-03-03T20:19:02.487Z,18.37
2023-03-03T20:21:49.552Z,18.97
2023-03-03T20:24:48.477Z,19.80
2023-03-03T20:27:29.711Z,20.30
2023-03-03T20:30:21.776Z,20.80
2023-03-03T20:32:48.572Z,20.03
2023-03-03T20:35:18.057Z,20.53
2023-03-03T20:37:59.004Z,21.33
2023-03-03T20:41:06.111Z,21.60
2023-03-03T20:43:51.396Z,19.47
2023-03-03T20:46:31.018Z,20.30
2023-03-03T20:49:14.743Z,19.80
2023-03-03T20:51:43.952Z,19.67
2023-03-03T20:54:44.825Z,20.30
2023-03-03T20:57:34.093Z,19.83
2023-03-03T21:00:03.831Z,19.87
2023-03-03T21:02:45.628Z,20.50
2023-03-03T21:05:25.234Z,19.50
2023-03-03T21:08:04.125Z,19.47
2023-03-03T21:10:36.699Z,20.47
2023-03-03T21:13:44.090Z,19.60
2023-03-03T21:16:18.720Z,19.23
2023-03-03T21:19:03.212Z,19.53
2023-03-03T21:21:46.221Z,20.37
2023-03-03T21:24:15.352Z,19.53
2023-03-03T21:26:59.166Z,19.80
2023-03-03T21:29:40.189Z,20.80
2023-03-03T21:32:10.624Z,20.83
2023-03-03T21:34:42.391Z,19.50
2023-03-03T21:37:10.116Z,23.07
2023-03-03T21:39:41.222Z,20.03
2023-03-03T21:42:09.964Z,20.43
2023-03-03T21:44:44.175Z,21.10
2023-03-03T21:47:14.913Z,21.10
2023-03-03T21:49:43.550Z,20.23
2023-03-03T21:52:16.491Z,20.17
2023-03-03T21:54:44.877Z,19.93
2023-03-03T21:57:12.056Z,18.87
2023-03-03T21:59:39.683Z,19.33
2023-03-03T22:02:07.607Z,20.13
2023-03-03T22:04:34.839Z,19.30
2023-03-03T22:07:01.799Z,19.47
2023-03-03T22:09:28.648Z,19.47
2023-03-03T22:11:55.564Z,18.63
2023-03-03T22:14:22.358Z,19.50
2023-03-03T22:16:49.202Z,20.00
2023-03-03T22:19:16.117Z,19.23
2023-03-03T22:21:43.050Z,19.37
2023-03-03T22:24:09.982Z,19.77
2023-03-03T22:26:36.924Z,19.57
2023-03-03T22:29:04.111Z,17.07
2023-03-03T22:31:31.383Z,24.58
2023-03-03T22:33:58.241Z,19.37
2023-03-03T22:36:25.311Z,18.80
2023-03-03T22:38:52.076Z,18.73
2023-03-03T22:41:19.024Z,18.33
2023-03-03T22:43:46.327Z,17.47
2023-03-03T22:46:13.519Z,17.70
2023-03-03T22:48:40.628Z,18.23
2023-03-03T22:51:07.477Z,17.80
2023-03-03T22:53:34.472Z,17.73
2023-03-03T22:56:01.419Z,18.20
2023-03-03T22:58:29.480Z,18.60
2023-03-03T23:00:56.551Z,17.50
2023-03-03T23:03:24.206Z,17.53
2023-03-03T23:05:52.033Z,17.57
2023-03-03T23:08:20.341Z,19.30
2023-03-03T23:10:53.829Z,17.73
2023-03-03T23:13:20.795Z,17.43
2023-03-03T23:15:47.708Z,17.93
2023-03-03T23:18:14.498Z,17.00
2023-03-03T23:20:45.778Z,18.00
2023-03-03T23:23:13.293Z,16.27
2023-03-03T23:25:40.191Z,16.63
2023-03-03T23:28:07.647Z,17.57
2023-03-03T23:30:34.855Z,16.77
2023-03-03T23:33:01.724Z,17.70
2023-03-03T23:35:28.693Z,16.30
2023-03-03T23:37:55.639Z,15.50
2023-03-03T23:40:22.515Z,15.37
2023-03-03T23:42:49.686Z,15.30
2023-03-03T23:45:16.744Z,15.27
2023-03-03T23:47:43.797Z,16.03
2023-03-03T23:50:12.254Z,16.57
2023-03-03T23:52:39.269Z,15.97
2023-03-03T23:55:08.172Z,16.07
2023-03-03T23:57:35.235Z,15.80
